Airfield :
LOGIN :

Register | Disclaimer

   EN    FR    IT 

 










Legend :    VFR   Marginal VFR   IFR   Intensive IFR   Very Intensive IFR
Visi :
Ceiling :
>= 8 km
>= 3000ft
5 to 8 km
1000 to 3000 ft
1500m to 5 km
500 to 1000 ft
800 to 1500m
200 to 500 ft
< 800m
< 200 ft
Symbols :   Thunderstorms  Fog  Heavy snow  Heavy precipitations  Wind > 20 kt
SIGMETs :     Misc.  Thunderstorms  Icing  Turbulence  Mountain Waves  Volcanic Ashes







- Airport Elevation : 1046 ft
- IATA code : NUE


EDDN - Nuremberg

CURRENT METAR :
  • 152120Z 34003KT 9999 FEW031 19/14 Q1016

EXPIRED METARs :
  • 152050Z 01003KT 9999 FEW042 19/14 Q1016
  • 152020Z VRB02KT 9999 FEW035 20/13 Q1016 NOSIG
  • 151950Z 33005KT 9999 FEW035 21/13 Q1016 NOSIG
  • 151920Z 30008KT 9999 FEW042 22/13 Q1015 NOSIG
  • 151850Z 29009KT 9999 FEW042 22/13 Q1015 NOSIG

TAF TAF EDDN
Valid from the 15 at 18:00 until the 16 at 18:00 UTC


151700Z 1518/1618 29004KT 9999 SCT040
TEMPO 1602/1605 30010KT TSRA BKN020CB
TEMPO 1605/1610 RA BKN009
PROB30
TEMPO 1613/1617 30015G25KT TSRA BKN025CB
No reported NOTAMs for that airfield.
3 SIGMETs reported for the München FIR (EDMM) :
 
SIGMET 1  cancelation
EDMM SIGMET 3 VALID 152130/152150 EDZF
EDMM MUNCHEN FIR CNL SIGMET 1 151950/152150=
Frequent thunderstorms
EDMM SIGMET 2 VALID 152130/152300 EDZF
EDMM MUNCHEN FIR FRQ TS OBS APRX 50NM WID LINE BTN N4852 E01007 - N4737 E01112 TOP FL360 MOV NE 30KT NC=
SIGMET 1  CANCELED :
Embedded thunderstorms
EDMM SIGMET 1 VALID 151950/152150 EDZF
EDMM MUNCHEN FIR EMBD TS FCST SW OF LINE N4735 E01035 - N4840 E00940 TOP FL370 MOV NE 25KT NC=



MET'MAP, your aeronautical weather chart ! - Copyright ORBIFLY December 2007 - Disclaimer

ORBIFLY MET'MAP TEAM :

Programming & Development : Alexandra Zaïnal
Concept & Development : Baudouin d'Aumeries
Co-Development & Prog : Marc-Olivier Méhu
Technical & hardware support : Manuel Goepfert

Contact : metmap@orbifly.com




SOURCES & CREDITS :

   NOAA